sensor_id;sensor_type;location;lat;lon;timestamp;P1;durP1;ratioP1;P2;durP2;ratioP2
20855;SDS011;63058;49.424;8.420;2023-06-14T00:01:46;2.20;;;1.90;;
20855;SDS011;63058;49.424;8.420;2023-06-14T00:04:12;5.40;;;2.50;;
20855;SDS011;63058;49.424;8.420;2023-06-14T00:06:38;2.35;;;2.15;;
20855;SDS011;63058;49.424;8.420;2023-06-14T00:09:04;3.58;;;2.08;;
20855;SDS011;63058;49.424;8.420;2023-06-14T00:11:34;4.00;;;2.03;;
20855;SDS011;63058;49.424;8.420;2023-06-14T00:13:59;2.83;;;1.90;;
20855;SDS011;63058;49.424;8.420;2023-06-14T00:16:28;3.00;;;2.25;;
20855;SDS011;63058;49.424;8.420;2023-06-14T00:18:54;2.40;;;1.83;;
20855;SDS011;63058;49.424;8.420;2023-06-14T00:21:19;2.92;;;1.80;;
20855;SDS011;63058;49.424;8.420;2023-06-14T00:23:45;6.78;;;1.88;;
20855;SDS011;63058;49.424;8.420;2023-06-14T00:26:11;2.45;;;2.25;;
20855;SDS011;63058;49.424;8.420;2023-06-14T00:28:36;4.05;;;1.95;;
20855;SDS011;63058;49.424;8.420;2023-06-14T00:31:02;3.30;;;2.03;;
20855;SDS011;63058;49.424;8.420;2023-06-14T00:33:27;3.58;;;2.00;;
20855;SDS011;63058;49.424;8.420;2023-06-14T00:35:56;5.30;;;2.83;;
20855;SDS011;63058;49.424;8.420;2023-06-14T00:38:22;3.85;;;2.40;;
20855;SDS011;63058;49.424;8.420;2023-06-14T00:40:47;3.15;;;2.65;;
20855;SDS011;63058;49.424;8.420;2023-06-14T00:43:13;3.92;;;2.60;;
20855;SDS011;63058;49.424;8.420;2023-06-14T00:45:39;7.05;;;2.50;;
20855;SDS011;63058;49.424;8.420;2023-06-14T00:48:04;5.28;;;3.10;;
20855;SDS011;63058;49.424;8.420;2023-06-14T00:50:32;3.28;;;2.50;;
20855;SDS011;63058;49.424;8.420;2023-06-14T00:52:59;4.88;;;2.83;;
20855;SDS011;63058;49.424;8.420;2023-06-14T00:55:26;4.60;;;2.45;;
20855;SDS011;63058;49.424;8.420;2023-06-14T00:57:53;4.70;;;2.05;;
20855;SDS011;63058;49.424;8.420;2023-06-14T01:00:19;6.28;;;2.50;;
20855;SDS011;63058;49.424;8.420;2023-06-14T01:02:48;5.78;;;2.72;;
20855;SDS011;63058;49.424;8.420;2023-06-14T01:05:14;5.78;;;2.63;;
20855;SDS011;63058;49.424;8.420;2023-06-14T01:13:32;4.35;;;2.42;;
20855;SDS011;63058;49.424;8.420;2023-06-14T01:16:03;5.57;;;2.28;;
20855;SDS011;63058;49.424;8.420;2023-06-14T01:18:30;6.40;;;2.47;;
20855;SDS011;63058;49.424;8.420;2023-06-14T01:20:57;5.38;;;2.53;;
20855;SDS011;63058;49.424;8.420;2023-06-14T01:23:23;4.75;;;2.25;;
20855;SDS011;63058;49.424;8.420;2023-06-14T01:25:49;4.18;;;2.08;;
20855;SDS011;63058;49.424;8.420;2023-06-14T01:28:18;3.88;;;2.50;;
20855;SDS011;63058;49.424;8.420;2023-06-14T01:30:49;5.85;;;2.30;;
20855;SDS011;63058;49.424;8.420;2023-06-14T01:33:19;3.70;;;2.10;;
20855;SDS011;63058;49.424;8.420;2023-06-14T01:35:47;5.95;;;2.40;;
20855;SDS011;63058;49.424;8.420;2023-06-14T01:38:14;2.60;;;2.40;;
20855;SDS011;63058;49.424;8.420;2023-06-14T01:40:42;3.65;;;2.25;;
20855;SDS011;63058;49.424;8.420;2023-06-14T01:43:09;6.25;;;2.97;;
20855;SDS011;63058;49.424;8.420;2023-06-14T01:45:37;4.22;;;2.35;;
20855;SDS011;63058;49.424;8.420;2023-06-14T01:48:04;2.33;;;2.03;;
20855;SDS011;63058;49.424;8.420;2023-06-14T01:50:30;5.50;;;2.70;;
20855;SDS011;63058;49.424;8.420;2023-06-14T01:52:59;2.75;;;2.15;;
20855;SDS011;63058;49.424;8.420;2023-06-14T01:55:25;5.03;;;2.25;;
20855;SDS011;63058;49.424;8.420;2023-06-14T01:57:51;5.15;;;2.55;;
20855;SDS011;63058;49.424;8.420;2023-06-14T02:00:17;2.70;;;2.25;;
20855;SDS011;63058;49.424;8.420;2023-06-14T02:02:43;5.88;;;2.20;;
20855;SDS011;63058;49.424;8.420;2023-06-14T02:05:09;5.18;;;2.42;;
20855;SDS011;63058;49.424;8.420;2023-06-14T02:07:35;3.45;;;2.17;;
20855;SDS011;63058;49.424;8.420;2023-06-14T02:10:01;2.85;;;2.22;;
20855;SDS011;63058;49.424;8.420;2023-06-14T02:12:28;3.45;;;2.55;;
20855;SDS011;63058;49.424;8.420;2023-06-14T02:14:53;2.47;;;2.10;;
20855;SDS011;63058;49.424;8.420;2023-06-14T02:17:19;2.83;;;2.28;;
20855;SDS011;63058;49.424;8.420;2023-06-14T02:19:45;2.55;;;2.33;;
20855;SDS011;63058;49.424;8.420;2023-06-14T02:22:11;6.40;;;2.58;;
20855;SDS011;63058;49.424;8.420;2023-06-14T02:24:36;2.88;;;2.28;;
20855;SDS011;63058;49.424;8.420;2023-06-14T02:27:03;7.57;;;2.35;;
20855;SDS011;63058;49.424;8.420;2023-06-14T02:29:29;2.63;;;2.40;;
20855;SDS011;63058;49.424;8.420;2023-06-14T02:31:55;3.00;;;2.60;;
20855;SDS011;63058;49.424;8.420;2023-06-14T02:34:20;3.33;;;2.50;;
20855;SDS011;63058;49.424;8.420;2023-06-14T02:36:47;6.18;;;2.45;;
20855;SDS011;63058;49.424;8.420;2023-06-14T02:39:13;2.92;;;2.28;;
20855;SDS011;63058;49.424;8.420;2023-06-14T02:41:39;4.03;;;2.55;;
20855;SDS011;63058;49.424;8.420;2023-06-14T02:44:05;5.18;;;2.47;;
20855;SDS011;63058;49.424;8.420;2023-06-14T02:46:31;4.28;;;2.47;;
20855;SDS011;63058;49.424;8.420;2023-06-14T02:48:57;3.72;;;2.50;;
20855;SDS011;63058;49.424;8.420;2023-06-14T02:51:22;3.47;;;2.55;;
20855;SDS011;63058;49.424;8.420;2023-06-14T02:53:48;4.13;;;2.90;;
20855;SDS011;63058;49.424;8.420;2023-06-14T02:56:14;3.08;;;2.78;;
20855;SDS011;63058;49.424;8.420;2023-06-14T02:58:42;3.72;;;2.45;;
20855;SDS011;63058;49.424;8.420;2023-06-14T03:01:08;3.47;;;2.80;;
20855;SDS011;63058;49.424;8.420;2023-06-14T03:03:37;3.30;;;2.85;;
20855;SDS011;63058;49.424;8.420;2023-06-14T03:06:03;4.13;;;3.10;;
20855;SDS011;63058;49.424;8.420;2023-06-14T03:08:30;3.53;;;2.95;;
20855;SDS011;63058;49.424;8.420;2023-06-14T03:10:58;5.15;;;2.58;;
20855;SDS011;63058;49.424;8.420;2023-06-14T03:13:23;4.38;;;2.55;;
20855;SDS011;63058;49.424;8.420;2023-06-14T03:15:49;3.25;;;2.65;;
20855;SDS011;63058;49.424;8.420;2023-06-14T03:18:17;4.20;;;2.90;;
20855;SDS011;63058;49.424;8.420;2023-06-14T03:20:44;3.40;;;3.05;;
20855;SDS011;63058;49.424;8.420;2023-06-14T03:23:10;3.50;;;2.83;;
20855;SDS011;63058;49.424;8.420;2023-06-14T03:25:36;3.63;;;3.15;;
20855;SDS011;63058;49.424;8.420;2023-06-14T03:28:03;4.60;;;2.75;;
20855;SDS011;63058;49.424;8.420;2023-06-14T03:30:30;3.70;;;3.03;;
20855;SDS011;63058;49.424;8.420;2023-06-14T03:32:56;4.53;;;2.90;;
20855;SDS011;63058;49.424;8.420;2023-06-14T03:35:23;4.03;;;2.70;;
20855;SDS011;63058;49.424;8.420;2023-06-14T03:37:48;3.97;;;2.63;;
20855;SDS011;63058;49.424;8.420;2023-06-14T03:40:15;4.10;;;3.10;;
20855;SDS011;63058;49.424;8.420;2023-06-14T03:42:43;2.63;;;2.42;;
20855;SDS011;63058;49.424;8.420;2023-06-14T03:45:09;4.25;;;2.83;;
20855;SDS011;63058;49.424;8.420;2023-06-14T03:47:35;4.05;;;3.22;;
20855;SDS011;63058;49.424;8.420;2023-06-14T03:50:01;4.45;;;2.63;;
20855;SDS011;63058;49.424;8.420;2023-06-14T03:52:28;6.28;;;3.60;;
20855;SDS011;63058;49.424;8.420;2023-06-14T03:54:54;3.47;;;2.60;;
20855;SDS011;63058;49.424;8.420;2023-06-14T03:57:20;3.25;;;2.53;;
20855;SDS011;63058;49.424;8.420;2023-06-14T03:59:47;5.32;;;2.75;;
20855;SDS011;63058;49.424;8.420;2023-06-14T04:02:12;3.88;;;2.42;;
20855;SDS011;63058;49.424;8.420;2023-06-14T04:04:41;5.00;;;2.60;;
20855;SDS011;63058;49.424;8.420;2023-06-14T04:07:09;3.90;;;3.08;;
20855;SDS011;63058;49.424;8.420;2023-06-14T04:09:36;2.50;;;2.30;;
20855;SDS011;63058;49.424;8.420;2023-06-14T04:12:02;3.88;;;3.00;;
20855;SDS011;63058;49.424;8.420;2023-06-14T04:14:28;3.83;;;3.00;;
20855;SDS011;63058;49.424;8.420;2023-06-14T04:16:55;3.70;;;2.63;;
20855;SDS011;63058;49.424;8.420;2023-06-14T04:19:21;5.68;;;2.88;;
20855;SDS011;63058;49.424;8.420;2023-06-14T04:21:47;4.43;;;2.70;;
20855;SDS011;63058;49.424;8.420;2023-06-14T04:24:12;3.47;;;2.60;;
20855;SDS011;63058;49.424;8.420;2023-06-14T04:26:41;3.00;;;2.70;;
20855;SDS011;63058;49.424;8.420;2023-06-14T04:29:10;3.28;;;2.65;;
20855;SDS011;63058;49.424;8.420;2023-06-14T04:31:39;3.35;;;2.80;;
20855;SDS011;63058;49.424;8.420;2023-06-14T04:34:05;5.32;;;2.70;;
20855;SDS011;63058;49.424;8.420;2023-06-14T04:36:35;7.05;;;2.83;;
20855;SDS011;63058;49.424;8.420;2023-06-14T04:39:03;4.10;;;2.83;;
20855;SDS011;63058;49.424;8.420;2023-06-14T04:41:29;4.28;;;2.35;;
20855;SDS011;63058;49.424;8.420;2023-06-14T04:43:59;4.57;;;2.60;;
20855;SDS011;63058;49.424;8.420;2023-06-14T04:46:26;4.55;;;2.75;;
20855;SDS011;63058;49.424;8.420;2023-06-14T04:48:53;3.03;;;2.40;;
20855;SDS011;63058;49.424;8.420;2023-06-14T04:51:19;4.50;;;2.38;;
20855;SDS011;63058;49.424;8.420;2023-06-14T04:53:47;3.10;;;2.80;;
20855;SDS011;63058;49.424;8.420;2023-06-14T04:56:14;3.78;;;2.50;;
20855;SDS011;63058;49.424;8.420;2023-06-14T04:58:40;2.90;;;2.45;;
20855;SDS011;63058;49.424;8.420;2023-06-14T05:01:05;2.65;;;2.05;;
20855;SDS011;63058;49.424;8.420;2023-06-14T05:03:34;4.15;;;2.50;;
20855;SDS011;63058;49.424;8.420;2023-06-14T05:05:59;4.25;;;2.45;;
20855;SDS011;63058;49.424;8.420;2023-06-14T05:08:25;4.10;;;2.75;;
20855;SDS011;63058;49.424;8.420;2023-06-14T05:10:51;5.03;;;2.75;;
20855;SDS011;63058;49.424;8.420;2023-06-14T05:13:17;4.75;;;2.53;;
20855;SDS011;63058;49.424;8.420;2023-06-14T05:15:43;5.07;;;2.67;;
20855;SDS011;63058;49.424;8.420;2023-06-14T05:18:09;3.10;;;2.70;;
20855;SDS011;63058;49.424;8.420;2023-06-14T05:20:35;4.78;;;2.80;;
20855;SDS011;63058;49.424;8.420;2023-06-14T05:23:02;4.28;;;2.28;;
20855;SDS011;63058;49.424;8.420;2023-06-14T05:25:27;5.50;;;2.88;;
20855;SDS011;63058;49.424;8.420;2023-06-14T05:27:53;5.45;;;2.47;;
20855;SDS011;63058;49.424;8.420;2023-06-14T05:30:19;4.47;;;2.35;;
20855;SDS011;63058;49.424;8.420;2023-06-14T05:32:44;4.63;;;2.63;;
20855;SDS011;63058;49.424;8.420;2023-06-14T05:35:10;3.42;;;2.63;;
20855;SDS011;63058;49.424;8.420;2023-06-14T05:37:36;4.72;;;2.97;;
20855;SDS011;63058;49.424;8.420;2023-06-14T05:40:02;5.78;;;3.10;;
20855;SDS011;63058;49.424;8.420;2023-06-14T05:42:30;4.90;;;2.47;;
20855;SDS011;63058;49.424;8.420;2023-06-14T05:44:56;3.75;;;2.78;;
20855;SDS011;63058;49.424;8.420;2023-06-14T05:47:21;8.73;;;3.40;;
20855;SDS011;63058;49.424;8.420;2023-06-14T05:49:47;5.45;;;2.65;;
20855;SDS011;63058;49.424;8.420;2023-06-14T05:52:13;3.42;;;2.22;;
20855;SDS011;63058;49.424;8.420;2023-06-14T05:54:38;5.50;;;2.40;;
20855;SDS011;63058;49.424;8.420;2023-06-14T05:57:04;3.13;;;2.33;;
20855;SDS011;63058;49.424;8.420;2023-06-14T05:59:31;5.85;;;2.45;;
20855;SDS011;63058;49.424;8.420;2023-06-14T06:01:57;5.55;;;2.63;;
20855;SDS011;63058;49.424;8.420;2023-06-14T06:04:22;7.07;;;2.55;;
20855;SDS011;63058;49.424;8.420;2023-06-14T06:06:48;7.30;;;2.53;;
20855;SDS011;63058;49.424;8.420;2023-06-14T06:09:14;4.13;;;3.03;;
20855;SDS011;63058;49.424;8.420;2023-06-14T06:11:39;4.25;;;2.88;;
20855;SDS011;63058;49.424;8.420;2023-06-14T06:14:05;6.50;;;2.60;;
20855;SDS011;63058;49.424;8.420;2023-06-14T06:16:31;2.83;;;2.40;;
20855;SDS011;63058;49.424;8.420;2023-06-14T06:18:57;4.35;;;2.60;;
20855;SDS011;63058;49.424;8.420;2023-06-14T06:21:22;3.65;;;2.78;;
20855;SDS011;63058;49.424;8.420;2023-06-14T06:23:48;7.70;;;2.78;;
20855;SDS011;63058;49.424;8.420;2023-06-14T06:26:13;3.90;;;2.40;;
20855;SDS011;63058;49.424;8.420;2023-06-14T06:28:39;3.15;;;2.40;;
20855;SDS011;63058;49.424;8.420;2023-06-14T06:31:05;5.70;;;2.55;;
20855;SDS011;63058;49.424;8.420;2023-06-14T06:33:31;6.40;;;2.20;;
20855;SDS011;63058;49.424;8.420;2023-06-14T06:35:56;5.07;;;2.40;;
20855;SDS011;63058;49.424;8.420;2023-06-14T06:38:22;4.65;;;2.80;;
20855;SDS011;63058;49.424;8.420;2023-06-14T06:40:47;5.10;;;2.90;;
20855;SDS011;63058;49.424;8.420;2023-06-14T06:43:13;5.65;;;2.88;;
20855;SDS011;63058;49.424;8.420;2023-06-14T06:45:39;4.70;;;2.40;;
20855;SDS011;63058;49.424;8.420;2023-06-14T06:48:05;2.83;;;2.40;;
20855;SDS011;63058;49.424;8.420;2023-06-14T06:50:30;5.63;;;2.30;;
20855;SDS011;63058;49.424;8.420;2023-06-14T06:52:56;3.08;;;2.08;;
20855;SDS011;63058;49.424;8.420;2023-06-14T06:55:22;5.50;;;2.58;;
20855;SDS011;63058;49.424;8.420;2023-06-14T06:57:48;4.53;;;2.30;;
20855;SDS011;63058;49.424;8.420;2023-06-14T07:00:14;4.07;;;2.17;;
20855;SDS011;63058;49.424;8.420;2023-06-14T07:02:41;3.35;;;2.40;;
20855;SDS011;63058;49.424;8.420;2023-06-14T07:05:06;3.28;;;2.28;;
20855;SDS011;63058;49.424;8.420;2023-06-14T07:07:32;2.75;;;2.08;;
20855;SDS011;63058;49.424;8.420;2023-06-14T07:09:58;4.32;;;2.17;;
20855;SDS011;63058;49.424;8.420;2023-06-14T07:12:25;3.55;;;2.47;;
20855;SDS011;63058;49.424;8.420;2023-06-14T07:14:51;3.90;;;2.10;;
20855;SDS011;63058;49.424;8.420;2023-06-14T07:17:16;5.45;;;2.40;;
20855;SDS011;63058;49.424;8.420;2023-06-14T07:19:42;3.17;;;2.25;;
20855;SDS011;63058;49.424;8.420;2023-06-14T07:22:07;3.35;;;2.22;;
20855;SDS011;63058;49.424;8.420;2023-06-14T07:24:33;2.53;;;1.80;;
20855;SDS011;63058;49.424;8.420;2023-06-14T07:27:01;2.90;;;2.35;;
20855;SDS011;63058;49.424;8.420;2023-06-14T07:29:28;5.63;;;2.10;;
20855;SDS011;63058;49.424;8.420;2023-06-14T07:31:53;4.03;;;2.25;;
20855;SDS011;63058;49.424;8.420;2023-06-14T07:34:19;3.22;;;2.00;;
20855;SDS011;63058;49.424;8.420;2023-06-14T07:36:44;5.13;;;2.58;;
20855;SDS011;63058;49.424;8.420;2023-06-14T07:39:11;4.38;;;2.33;;
20855;SDS011;63058;49.424;8.420;2023-06-14T07:41:36;3.83;;;2.20;;
20855;SDS011;63058;49.424;8.420;2023-06-14T07:44:02;3.45;;;2.53;;
20855;SDS011;63058;49.424;8.420;2023-06-14T07:46:28;4.95;;;2.28;;
20855;SDS011;63058;49.424;8.420;2023-06-14T07:48:53;5.75;;;1.90;;
20855;SDS011;63058;49.424;8.420;2023-06-14T07:51:19;2.85;;;2.25;;
20855;SDS011;63058;49.424;8.420;2023-06-14T07:53:46;4.70;;;1.88;;
20855;SDS011;63058;49.424;8.420;2023-06-14T07:56:12;4.35;;;2.03;;
20855;SDS011;63058;49.424;8.420;2023-06-14T07:58:38;3.63;;;2.45;;
20855;SDS011;63058;49.424;8.420;2023-06-14T08:01:03;2.17;;;1.92;;
20855;SDS011;63058;49.424;8.420;2023-06-14T08:03:31;3.78;;;2.45;;
20855;SDS011;63058;49.424;8.420;2023-06-14T08:05:57;3.85;;;1.95;;
20855;SDS011;63058;49.424;8.420;2023-06-14T08:08:23;4.00;;;2.20;;
20855;SDS011;63058;49.424;8.420;2023-06-14T08:10:48;3.00;;;1.75;;
20855;SDS011;63058;49.424;8.420;2023-06-14T08:13:14;2.63;;;1.73;;
20855;SDS011;63058;49.424;8.420;2023-06-14T08:15:39;2.05;;;1.70;;
20855;SDS011;63058;49.424;8.420;2023-06-14T08:18:05;4.10;;;2.15;;
20855;SDS011;63058;49.424;8.420;2023-06-14T08:20:31;4.43;;;2.13;;
20855;SDS011;63058;49.424;8.420;2023-06-14T08:22:56;4.97;;;2.03;;
20855;SDS011;63058;49.424;8.420;2023-06-14T08:25:23;2.53;;;1.95;;
20855;SDS011;63058;49.424;8.420;2023-06-14T08:27:48;4.63;;;1.70;;
20855;SDS011;63058;49.424;8.420;2023-06-14T08:30:15;2.13;;;1.77;;
20855;SDS011;63058;49.424;8.420;2023-06-14T08:32:42;2.70;;;1.85;;
20855;SDS011;63058;49.424;8.420;2023-06-14T08:35:08;2.55;;;1.75;;
20855;SDS011;63058;49.424;8.420;2023-06-14T08:37:37;3.88;;;2.05;;
20855;SDS011;63058;49.424;8.420;2023-06-14T08:40:27;3.42;;;1.88;;
20855;SDS011;63058;49.424;8.420;2023-06-14T08:42:54;5.47;;;1.90;;
20855;SDS011;63058;49.424;8.420;2023-06-14T08:45:20;7.03;;;1.60;;
20855;SDS011;63058;49.424;8.420;2023-06-14T08:47:47;2.42;;;2.00;;
20855;SDS011;63058;49.424;8.420;2023-06-14T08:50:19;2.45;;;2.25;;
20855;SDS011;63058;49.424;8.420;2023-06-14T08:52:49;3.47;;;1.90;;
20855;SDS011;63058;49.424;8.420;2023-06-14T08:55:18;2.53;;;2.20;;
20855;SDS011;63058;49.424;8.420;2023-06-14T08:57:45;2.80;;;1.63;;
20855;SDS011;63058;49.424;8.420;2023-06-14T09:00:12;4.07;;;1.75;;
20855;SDS011;63058;49.424;8.420;2023-06-14T09:02:39;4.20;;;1.58;;
20855;SDS011;63058;49.424;8.420;2023-06-14T09:05:11;2.60;;;1.70;;
20855;SDS011;63058;49.424;8.420;2023-06-14T09:07:38;2.00;;;1.77;;
20855;SDS011;63058;49.424;8.420;2023-06-14T09:10:14;2.15;;;1.70;;
20855;SDS011;63058;49.424;8.420;2023-06-14T09:12:40;2.38;;;1.75;;
20855;SDS011;63058;49.424;8.420;2023-06-14T09:15:06;3.33;;;1.52;;
20855;SDS011;63058;49.424;8.420;2023-06-14T09:17:33;1.50;;;1.40;;
20855;SDS011;63058;49.424;8.420;2023-06-14T09:20:01;2.85;;;1.70;;
20855;SDS011;63058;49.424;8.420;2023-06-14T09:22:33;2.13;;;1.58;;
20855;SDS011;63058;49.424;8.420;2023-06-14T09:24:59;4.13;;;1.80;;
20855;SDS011;63058;49.424;8.420;2023-06-14T09:27:25;2.47;;;1.80;;
20855;SDS011;63058;49.424;8.420;2023-06-14T09:29:51;2.53;;;1.50;;
20855;SDS011;63058;49.424;8.420;2023-06-14T09:32:17;2.13;;;1.48;;
20855;SDS011;63058;49.424;8.420;2023-06-14T09:34:43;2.30;;;1.60;;
20855;SDS011;63058;49.424;8.420;2023-06-14T09:37:10;1.70;;;1.40;;
20855;SDS011;63058;49.424;8.420;2023-06-14T09:39:42;1.95;;;1.30;;
20855;SDS011;63058;49.424;8.420;2023-06-14T09:42:18;3.45;;;1.50;;
20855;SDS011;63058;49.424;8.420;2023-06-14T09:44:45;2.88;;;1.75;;
20855;SDS011;63058;49.424;8.420;2023-06-14T09:47:14;2.45;;;1.55;;
20855;SDS011;63058;49.424;8.420;2023-06-14T09:49:40;2.78;;;1.85;;
20855;SDS011;63058;49.424;8.420;2023-06-14T09:52:06;3.40;;;1.42;;
20855;SDS011;63058;49.424;8.420;2023-06-14T09:54:35;2.30;;;1.80;;
20855;SDS011;63058;49.424;8.420;2023-06-14T09:57:07;3.45;;;1.70;;
20855;SDS011;63058;49.424;8.420;2023-06-14T09:59:39;2.58;;;1.60;;
20855;SDS011;63058;49.424;8.420;2023-06-14T10:02:14;2.17;;;1.40;;
20855;SDS011;63058;49.424;8.420;2023-06-14T10:05:11;2.05;;;1.58;;
20855;SDS011;63058;49.424;8.420;2023-06-14T10:07:59;3.60;;;1.65;;
20855;SDS011;63058;49.424;8.420;2023-06-14T10:10:34;4.43;;;2.00;;
20855;SDS011;63058;49.424;8.420;2023-06-14T10:13:03;2.38;;;1.90;;
20855;SDS011;63058;49.424;8.420;2023-06-14T10:24:03;1.90;;;1.60;;
20855;SDS011;63058;49.424;8.420;2023-06-14T10:27:44;3.70;;;1.52;;
20855;SDS011;63058;49.424;8.420;2023-06-14T10:33:02;1.30;;;1.08;;
20855;SDS011;63058;49.424;8.420;2023-06-14T10:35:36;1.63;;;1.40;;
20855;SDS011;63058;49.424;8.420;2023-06-14T10:38:18;4.90;;;1.58;;
20855;SDS011;63058;49.424;8.420;2023-06-14T10:41:01;1.63;;;1.45;;
20855;SDS011;63058;49.424;8.420;2023-06-14T10:43:41;3.80;;;1.70;;
20855;SDS011;63058;49.424;8.420;2023-06-14T10:46:16;5.32;;;1.65;;
20855;SDS011;63058;49.424;8.420;2023-06-14T10:52:13;1.77;;;1.40;;
20855;SDS011;63058;49.424;8.420;2023-06-14T10:55:15;1.65;;;1.20;;
20855;SDS011;63058;49.424;8.420;2023-06-14T11:00:16;2.15;;;1.30;;
20855;SDS011;63058;49.424;8.420;2023-06-14T11:06:05;2.17;;;1.50;;
20855;SDS011;63058;49.424;8.420;2023-06-14T11:12:06;1.45;;;1.35;;
20855;SDS011;63058;49.424;8.420;2023-06-14T11:14:39;1.40;;;1.30;;
20855;SDS011;63058;49.424;8.420;2023-06-14T11:17:08;3.80;;;1.25;;
20855;SDS011;63058;49.424;8.420;2023-06-14T11:19:43;1.42;;;1.33;;
20855;SDS011;63058;49.424;8.420;2023-06-14T11:22:17;1.40;;;1.30;;
20855;SDS011;63058;49.424;8.420;2023-06-14T11:24:46;3.08;;;1.35;;
20855;SDS011;63058;49.424;8.420;2023-06-14T11:27:23;3.15;;;1.50;;
20855;SDS011;63058;49.424;8.420;2023-06-14T11:30:06;1.83;;;1.55;;
20855;SDS011;63058;49.424;8.420;2023-06-14T11:32:36;2.13;;;1.60;;
20855;SDS011;63058;49.424;8.420;2023-06-14T11:35:08;1.67;;;1.33;;
20855;SDS011;63058;49.424;8.420;2023-06-14T11:37:35;2.30;;;1.42;;
20855;SDS011;63058;49.424;8.420;2023-06-14T11:40:08;1.38;;;1.27;;
20855;SDS011;63058;49.424;8.420;2023-06-14T11:42:38;2.75;;;1.50;;
20855;SDS011;63058;49.424;8.420;2023-06-14T11:45:07;3.17;;;1.90;;
20855;SDS011;63058;49.424;8.420;2023-06-14T11:47:42;1.88;;;1.42;;
20855;SDS011;63058;49.424;8.420;2023-06-14T11:50:14;2.38;;;1.63;;
20855;SDS011;63058;49.424;8.420;2023-06-14T11:52:39;3.55;;;1.30;;
20855;SDS011;63058;49.424;8.420;2023-06-14T11:55:09;5.80;;;2.20;;
20855;SDS011;63058;49.424;8.420;2023-06-14T11:57:35;1.63;;;1.33;;
20855;SDS011;63058;49.424;8.420;2023-06-14T12:00:06;4.72;;;1.63;;
20855;SDS011;63058;49.424;8.420;2023-06-14T12:02:38;1.92;;;1.67;;
20855;SDS011;63058;49.424;8.420;2023-06-14T12:05:09;3.65;;;1.50;;
20855;SDS011;63058;49.424;8.420;2023-06-14T12:07:38;2.38;;;1.38;;
20855;SDS011;63058;49.424;8.420;2023-06-14T12:10:10;2.33;;;1.80;;
20855;SDS011;63058;49.424;8.420;2023-06-14T12:12:39;2.65;;;1.40;;
20855;SDS011;63058;49.424;8.420;2023-06-14T12:29:06;1.17;;;1.05;;
20855;SDS011;63058;49.424;8.420;2023-06-14T12:32:11;3.55;;;1.10;;
20855;SDS011;63058;49.424;8.420;2023-06-14T12:34:44;2.90;;;1.33;;
20855;SDS011;63058;49.424;8.420;2023-06-14T12:37:09;1.90;;;1.25;;
20855;SDS011;63058;49.424;8.420;2023-06-14T12:39:35;1.90;;;1.35;;
20855;SDS011;63058;49.424;8.420;2023-06-14T12:42:03;1.45;;;1.35;;
20855;SDS011;63058;49.424;8.420;2023-06-14T12:44:29;1.60;;;1.33;;
20855;SDS011;63058;49.424;8.420;2023-06-14T12:46:55;2.45;;;1.65;;
20855;SDS011;63058;49.424;8.420;2023-06-14T12:49:21;4.07;;;1.58;;
20855;SDS011;63058;49.424;8.420;2023-06-14T12:51:47;1.75;;;1.40;;
20855;SDS011;63058;49.424;8.420;2023-06-14T12:54:12;2.03;;;1.63;;
20855;SDS011;63058;49.424;8.420;2023-06-14T12:56:39;1.60;;;1.50;;
20855;SDS011;63058;49.424;8.420;2023-06-14T12:59:06;4.53;;;1.67;;
20855;SDS011;63058;49.424;8.420;2023-06-14T13:01:32;2.75;;;1.88;;
20855;SDS011;63058;49.424;8.420;2023-06-14T13:03:58;2.33;;;2.13;;
20855;SDS011;63058;49.424;8.420;2023-06-14T13:06:23;1.83;;;1.45;;
20855;SDS011;63058;49.424;8.420;2023-06-14T13:08:49;2.00;;;1.70;;
20855;SDS011;63058;49.424;8.420;2023-06-14T13:11:15;2.40;;;1.70;;
20855;SDS011;63058;49.424;8.420;2023-06-14T13:13:41;2.88;;;1.60;;
20855;SDS011;63058;49.424;8.420;2023-06-14T13:16:09;1.40;;;1.27;;
20855;SDS011;63058;49.424;8.420;2023-06-14T13:18:35;1.42;;;1.33;;
20855;SDS011;63058;49.424;8.420;2023-06-14T13:21:01;2.55;;;1.63;;
20855;SDS011;63058;49.424;8.420;2023-06-14T13:23:27;3.38;;;1.52;;
20855;SDS011;63058;49.424;8.420;2023-06-14T13:25:56;2.95;;;1.45;;
20855;SDS011;63058;49.424;8.420;2023-06-14T13:28:21;1.88;;;1.33;;
20855;SDS011;63058;49.424;8.420;2023-06-14T13:30:47;2.03;;;1.40;;
20855;SDS011;63058;49.424;8.420;2023-06-14T13:33:13;1.88;;;1.38;;
20855;SDS011;63058;49.424;8.420;2023-06-14T13:35:42;1.75;;;1.33;;
20855;SDS011;63058;49.424;8.420;2023-06-14T13:38:09;1.83;;;1.38;;
20855;SDS011;63058;49.424;8.420;2023-06-14T13:40:35;4.32;;;1.38;;
20855;SDS011;63058;49.424;8.420;2023-06-14T13:43:01;1.42;;;1.23;;
20855;SDS011;63058;49.424;8.420;2023-06-14T13:45:27;2.90;;;1.45;;
20855;SDS011;63058;49.424;8.420;2023-06-14T13:47:52;1.77;;;1.30;;
20855;SDS011;63058;49.424;8.420;2023-06-14T13:50:19;1.60;;;1.50;;
20855;SDS011;63058;49.424;8.420;2023-06-14T13:52:45;1.48;;;1.33;;
20855;SDS011;63058;49.424;8.420;2023-06-14T13:55:11;1.77;;;1.27;;
20855;SDS011;63058;49.424;8.420;2023-06-14T13:57:36;2.20;;;1.50;;
20855;SDS011;63058;49.424;8.420;2023-06-14T14:00:02;3.60;;;1.35;;
20855;SDS011;63058;49.424;8.420;2023-06-14T14:02:28;2.45;;;1.95;;
20855;SDS011;63058;49.424;8.420;2023-06-14T14:04:54;1.65;;;1.55;;
20855;SDS011;63058;49.424;8.420;2023-06-14T14:07:20;2.22;;;1.40;;
20855;SDS011;63058;49.424;8.420;2023-06-14T14:09:47;1.90;;;1.40;;
20855;SDS011;63058;49.424;8.420;2023-06-14T14:12:13;3.17;;;1.25;;
20855;SDS011;63058;49.424;8.420;2023-06-14T14:14:39;1.88;;;1.40;;
20855;SDS011;63058;49.424;8.420;2023-06-14T14:17:05;2.50;;;1.45;;
20855;SDS011;63058;49.424;8.420;2023-06-14T14:19:31;1.80;;;1.45;;
20855;SDS011;63058;49.424;8.420;2023-06-14T14:21:57;1.80;;;1.35;;
20855;SDS011;63058;49.424;8.420;2023-06-14T14:24:23;2.00;;;1.80;;
20855;SDS011;63058;49.424;8.420;2023-06-14T14:26:48;3.47;;;1.67;;
20855;SDS011;63058;49.424;8.420;2023-06-14T14:29:15;1.60;;;1.30;;
20855;SDS011;63058;49.424;8.420;2023-06-14T14:31:41;1.60;;;1.50;;
20855;SDS011;63058;49.424;8.420;2023-06-14T14:34:06;2.80;;;1.50;;
20855;SDS011;63058;49.424;8.420;2023-06-14T14:36:32;2.10;;;1.77;;
20855;SDS011;63058;49.424;8.420;2023-06-14T14:39:02;1.45;;;1.35;;
20855;SDS011;63058;49.424;8.420;2023-06-14T14:41:29;1.83;;;1.60;;
20855;SDS011;63058;49.424;8.420;2023-06-14T14:43:54;1.88;;;1.48;;
20855;SDS011;63058;49.424;8.420;2023-06-14T14:46:20;1.85;;;1.42;;
20855;SDS011;63058;49.424;8.420;2023-06-14T14:48:45;1.58;;;1.48;;
20855;SDS011;63058;49.424;8.420;2023-06-14T14:51:11;1.73;;;1.25;;
20855;SDS011;63058;49.424;8.420;2023-06-14T14:53:36;3.50;;;1.30;;
20855;SDS011;63058;49.424;8.420;2023-06-14T14:56:02;2.70;;;1.35;;
20855;SDS011;63058;49.424;8.420;2023-06-14T14:58:28;1.67;;;1.30;;
20855;SDS011;63058;49.424;8.420;2023-06-14T15:00:53;2.35;;;1.45;;
20855;SDS011;63058;49.424;8.420;2023-06-14T15:03:19;1.40;;;1.30;;
20855;SDS011;63058;49.424;8.420;2023-06-14T15:05:44;1.63;;;1.27;;
20855;SDS011;63058;49.424;8.420;2023-06-14T15:08:10;1.65;;;1.30;;
20855;SDS011;63058;49.424;8.420;2023-06-14T15:10:39;1.80;;;1.25;;
20855;SDS011;63058;49.424;8.420;2023-06-14T15:13:06;2.38;;;1.15;;
20855;SDS011;63058;49.424;8.420;2023-06-14T15:15:33;1.60;;;1.40;;
20855;SDS011;63058;49.424;8.420;2023-06-14T15:17:59;1.95;;;1.70;;
20855;SDS011;63058;49.424;8.420;2023-06-14T15:20:25;2.88;;;1.52;;
20855;SDS011;63058;49.424;8.420;2023-06-14T15:22:51;1.95;;;1.50;;
20855;SDS011;63058;49.424;8.420;2023-06-14T15:25:17;1.65;;;1.55;;
20855;SDS011;63058;49.424;8.420;2023-06-14T15:27:44;2.08;;;1.80;;
20855;SDS011;63058;49.424;8.420;2023-06-14T15:30:10;2.03;;;1.52;;
20855;SDS011;63058;49.424;8.420;2023-06-14T15:32:36;2.42;;;1.52;;
20855;SDS011;63058;49.424;8.420;2023-06-14T15:35:01;2.00;;;1.50;;